Terminal Aerodrome Forecast
Issued by NWS Cleveland, OH

Home | Current Version | Previous Version | Graphics & Text | Print | Product List | Glossary On
Versions: 1 2 3 4 5 6 7 8 9 10 11 12 13 14
000
FTUS41 KCLE 252325
TAFYNG
TAF
KYNG 252325Z 2600/2624 22009KT P6SM BKN070
     FM260600 VRB02KT P6SM SCT070
     FM261500 VRB03KT P6SM BKN100
     FM261800 35006KT P6SM SKC=

USA.gov is the U.S. government's official web portal to all federal, state and local government web resources and services.